Skip to main content

NOAA/GLERL Met Station at Muskegon, MI

Previous 3 Hours (2 minute increments)
See also Previous 5 Days (top of hour)
Jump down to Data
Switch to [English][Metric]
Zoom: Click and drag, Pan: shift-click and drag, Unzoom: double-click, Unzoom All






See also 1-day windrose plot


NOAA/GLERL Met Station at Muskegon, MI

Previous 3 Hours (2 minute increments)
See also Previous 5 Days (top of hour only)
Jump up to Graphs
Switch to [English][Metric]
                  Wind  Wind  Wind   Air   Dew   Rel     Sta   PAR
                   Spd   Gst   Dir  Temp    Pt   Hum    Pres uE/m2/
YYYY-MM-DD   EDT   kts   kts   deg     F     F     %   in Hg   sec
2020-04-08 18:40   6.6   7.4   323  44.2  44.2  99.8   29.09    35
2020-04-08 18:38   6.6   7.8   322  44.2  44.2  99.8   29.09    38
2020-04-08 18:36   7.2   8.2   320  44.2  44.2  99.8   29.09    44
2020-04-08 18:34   7.2   9.1   322  44.1  44.0  99.8   29.09    44
2020-04-08 18:32   7.4   9.5   323  43.9  43.8  99.8   29.08    41
2020-04-08 18:30   6.8   7.8   310  43.7  43.6  99.8   29.07    43
2020-04-08 18:28   6.0   7.4   288  43.5  43.5  99.8   29.07    47
2020-04-08 18:26   5.4   6.2   288  43.5  43.5  99.8   29.07    54
2020-04-08 18:24   5.2   6.2   298  43.5  43.5  99.8   29.07    59
2020-04-08 18:22   4.3   4.7   302  43.5  43.5  99.8   29.07    64
2020-04-08 18:20   2.9   3.9   291  43.5  43.5  99.8   29.08    63
2020-04-08 18:18   2.9   3.3   279  43.5  43.5  99.8   29.08    65
2020-04-08 18:16   2.7   3.1   273  43.5  43.5  99.8   29.07    68
2020-04-08 18:14   2.1   3.1   264  43.7  43.6  99.8   29.07    60
2020-04-08 18:12   1.9   2.3   253  43.9  43.8  99.8   29.07    54
2020-04-08 18:10   1.9   2.5   249  43.9  43.8  99.8   29.07    55
2020-04-08 18:08   1.7   2.1   243  43.7  43.6  99.8   29.07    63
2020-04-08 18:06   2.3   2.9   239  43.7  43.6  99.8   29.07    64
2020-04-08 18:04   2.5   3.3   249  43.7  43.6  99.8   29.07    67
2020-04-08 18:02   2.1   3.1   235  43.5  43.5  99.8   29.07    75
2020-04-08 18:00   1.4   1.7   230  43.7  43.6  99.8   29.07    79
2020-04-08 17:58   1.2   1.4   223  43.5  43.5  99.8   29.07    77
2020-04-08 17:56   1.2   1.9   238  43.3  43.3  99.8   29.07    72
2020-04-08 17:54   0.8   1.6   231  43.2  43.1  99.8   29.07    82
2020-04-08 17:52   1.0   2.3   274  43.0  42.9  99.8   29.06   112
2020-04-08 17:50   1.9   3.5   260  42.6  42.6  99.8   29.06   143
2020-04-08 17:48   1.2   2.3   227  42.4  42.4  99.8   29.07   164
2020-04-08 17:46   1.0   1.6   196  42.4  42.4  99.8   29.07   192
2020-04-08 17:44   1.6   2.1   166  42.4  42.4  99.9   29.07   204
2020-04-08 17:42   2.3   2.9   165  42.4  42.4  99.8   29.07   204
2020-04-08 17:40   2.3   2.7   168  42.3  42.2  99.8   29.07   214
2020-04-08 17:38   1.7   2.1   187  42.3  42.2  99.8   29.08   222
2020-04-08 17:36   1.6   1.9   199  41.9  41.8  99.8   29.08   232
2020-04-08 17:34   0.4   1.4   210  41.7  41.7  99.8   29.08   237
2020-04-08 17:32   0.0   0.0     0  41.5  41.5  99.8   29.09   219
2020-04-08 17:30   0.2   0.8   291  41.5  41.5  99.8   29.09   190
2020-04-08 17:28   1.4   2.5   291  41.7  41.7  99.8   29.09   167
2020-04-08 17:26   3.1   3.5   292  41.7  41.7  99.8   29.10   146
2020-04-08 17:24   3.3   3.5   306  41.5  41.5  99.8   29.10   125
2020-04-08 17:22   3.1   3.9   313  41.5  41.5  99.8   29.11   119
2020-04-08 17:20   3.5   4.1   313  41.5  41.5  99.8   29.11   122
2020-04-08 17:18   3.5   4.5   324  41.5  41.5  99.8   29.11   120
2020-04-08 17:16   3.9   5.2   327  41.2  41.1  99.8   29.11   123
2020-04-08 17:14   3.3   5.1   352  41.2  41.1  99.8   29.11   121
2020-04-08 17:12   2.7   3.7   312  41.4  41.3  99.8   29.11   127
2020-04-08 17:10   3.7   4.5   330  41.4  41.3  99.8   29.11   120
2020-04-08 17:08   3.3   3.9   330  41.4  41.3  99.8   29.11   124
2020-04-08 17:06   3.3   4.5   340  41.4  41.3  99.8   29.11   121
2020-04-08 17:04   4.7   5.6   335  41.2  41.1  99.8   29.11   120
2020-04-08 17:02   2.9   5.4   322  40.8  40.8  99.8   29.11   139
2020-04-08 17:00   2.1   2.5   287  40.5  40.4  99.7   29.11   149
2020-04-08 16:58   2.9   3.7   240  40.5  40.4  99.7   29.10   159
2020-04-08 16:56   2.7   3.3   241  40.5  40.4  99.7   29.10   147
2020-04-08 16:54   2.9   3.3   239  40.6  40.6  99.7   29.10   156
2020-04-08 16:52   1.9   3.1   233  40.6  40.6  99.7   29.10   181
2020-04-08 16:50   1.0   1.6   243  40.6  40.5  99.6   29.09   189
2020-04-08 16:48   1.9   2.7   240  40.8  40.7  99.7   29.09   190
2020-04-08 16:46   2.3   4.3   235  41.0  40.9  99.7   29.09   194
2020-04-08 16:44   4.5   5.1   217  41.0  40.9  99.7   29.09   218
2020-04-08 16:42   3.1   4.3   224  40.8  40.7  99.7   29.09   211
2020-04-08 16:40   3.1   4.3   201  40.6  40.5  99.6   29.09   278
2020-04-08 16:38   3.7   4.9   194  40.6  40.5  99.6   29.09   298
2020-04-08 16:36   2.9   4.5   206  41.0  40.9  99.6   29.09   261
2020-04-08 16:34   5.1   5.8   205  40.8  40.7  99.6   29.09   299
2020-04-08 16:32   1.6   4.7   218  40.6  40.5  99.6   29.09   252
2020-04-08 16:30   2.3   2.9   209  40.6  40.5  99.5   29.09   277
2020-04-08 16:28   2.3   3.5   215  40.3  40.1  99.4   29.09   262
2020-04-08 16:26   0.6   1.0   243  40.3  40.1  99.4   29.10   220
2020-04-08 16:24   0.8   1.7   263  40.3  40.1  99.4   29.10   212
2020-04-08 16:22   1.7   1.9   258  40.1  39.9  99.3   29.10   228
2020-04-08 16:20   1.7   2.5   257  40.1  39.9  99.3   29.10   238
2020-04-08 16:18   3.1   3.9   242  40.1  39.9  99.1   29.11   235
2020-04-08 16:16   2.9   4.1   225  40.3  40.0  99.1   29.10   217
2020-04-08 16:14   3.7   4.5   229  40.6  40.4  99.2   29.11   209
2020-04-08 16:12   5.2   6.4   230  40.6  40.4  99.1   29.11   197
2020-04-08 16:10   6.6   7.4   230  41.0  40.8  99.3   29.11   230
2020-04-08 16:08   6.8   7.4   223  40.6  40.4  99.1   29.11   300
2020-04-08 16:06   5.1   5.6   238  40.5  40.2  98.9   29.11   308
2020-04-08 16:04   5.4   6.0   236  40.3  39.9  98.7   29.11   297
2020-04-08 16:02   4.3   5.2   240  40.5  40.2  98.8   29.11   288
2020-04-08 16:00   4.3   5.4   243  40.3  39.9  98.5   29.11   251
2020-04-08 15:58   3.9   5.2   242  40.5  40.1  98.5   29.11   262
2020-04-08 15:56   4.1   5.4   236  40.6  40.3  98.6   29.11   292
2020-04-08 15:54   3.5   4.1   208  40.6  40.3  98.6   29.11   382
2020-04-08 15:52   4.3   4.9   224  40.5  40.1  98.5   29.11   383
2020-04-08 15:50   4.7   5.4   229  40.3  39.8  98.1   29.11   361
2020-04-08 15:48   5.6   6.2   224  40.5  40.0  98.2   29.11   336
2020-04-08 15:46   5.2   6.0   222  40.6  40.2  98.3   29.11   349
2020-04-08 15:44   5.8   6.6   221  40.5  40.0  98.2   29.11   401
2020-04-08 15:42   6.2   6.8   223  40.1  39.6  97.9   29.11   373
2020-04-08 15:40   7.2   8.0   236  39.9  39.3  97.5   29.12   318